Home > Products > Valid Products > TAF

000
FTUS41 KAKQ 271015 AAA
TAFECG
TAF AMD
KECG 271015Z 2710/2806 23011KT 3SM RA BKN040 OVC050
     FM271100 01014G22KT 3SM RA BKN015 OVC040
     FM271300 01014G22KT 4SM -RA OVC008
     FM280000 35012KT 5SM -RA SCT015 OVC040=



000
FTUS41 KAKQ 270910 AAA
TAFRIC
TAF AMD
KRIC 270910Z 2709/2806 01014G22KT P6SM SCT015 OVC035
     FM271000 01012G20KT P6SM SCT008 OVC015
      TEMPO 2710/2712 BKN008
     FM271200 01012KT 4SM -RA BR OVC007
     FM271800 36008KT P6SM BKN020
     FM280000 32010KT P6SM BKN040=



000
FTUS41 KAKQ 270903 AAA
TAFSBY
TAF AMD
KSBY 270903Z 2709/2806 35012G20KT P6SM OVC014
     FM271200 35010KT 4SM -RA BR OVC012
     FM272000 33010KT P6SM BKN020
     FM280000 31012KT P6SM BKN040=



000
FTUS41 KAKQ 270539
TAFORF
TAF
KORF 270539Z 2706/2806 20012KT P6SM BKN250
     FM270900 01014G22KT P6SM BKN015 OVC040
     FM271200 01014G22KT P6SM -SHRA SCT008 OVC015
     FM271600 02012KT 4SM -RA OVC012
     FM280300 36010KT P6SM BKN025=



000
FTUS41 KAKQ 270539
TAFRIC
TAF
KRIC 270539Z 2706/2806 01012G20KT P6SM BKN015 OVC035
     FM270900 01012KT P6SM SCT008 OVC015
      TEMPO 2709/2712 BKN008
     FM271200 01012KT 4SM -RA BR OVC007
     FM271800 36008KT P6SM BKN020
     FM280000 32010KT P6SM BKN040=



000
FTUS41 KAKQ 270539
TAFPHF
TAF
KPHF 270539Z 2706/2806 22012KT P6SM SCT150 BKN250
     FM270800 01012G20KT P6SM BKN015 OVC040
     FM271000 01012KT P6SM SCT008 OVC015
      TEMPO 2710/2713 BKN008
     FM271300 02012KT 4SM -RA BR OVC008
     FM272000 36010KT 5SM -RA BR OVC012
     FM280000 34012KT P6SM BKN025=



000
FTUS41 KAKQ 270539
TAFECG
TAF
KECG 270539Z 2706/2806 21012KT P6SM BKN250
     FM271000 01014G22KT P6SM BKN015 OVC040
     FM271200 01014G22KT 4SM -RA OVC008
     FM280000 35012KT 5SM -RA SCT015 OVC040=



000
FTUS41 KAKQ 270539
TAFSBY
TAF
KSBY 270539Z 2706/2806 35012G20KT P6SM BKN015 OVC035
     FM270800 35012KT P6SM OVC015
     FM271200 35010KT 4SM -RA BR OVC012
     FM272000 33010KT P6SM BKN020
     FM280000 31012KT P6SM BKN040=



000
FTUS41 KAKQ 270539
TAFPHF
TAF
KPHF 270539Z 2706/2806 22012KT P6SM SCT150 BKN250
     FM270800 01012G20KT P6SM BKN015 OVC040
     FM271000 01012KT P6SM SCT008 OVC015
      TEMPO 2710/2713 BKN008
     FM271300 02012KT 4SM -RA BR OVC008
     FM272000 36010KT 5SM -RA BR OVC012
     FM280000 34012KT P6SM BKN025=



000
FTUS41 KAKQ 270539
TAFRIC
TAF
KRIC 270539Z 2706/2806 01012G20KT P6SM BKN015 OVC035
     FM270900 01012KT P6SM SCT008 OVC015
      TEMPO 2709/2712 BKN008
     FM271200 01012KT 4SM -RA BR OVC007
     FM271800 36008KT P6SM BKN020
     FM280000 32010KT P6SM BKN040=



000
FTUS41 KAKQ 270539
TAFSBY
TAF
KSBY 270539Z 2706/2806 35012G20KT P6SM BKN015 OVC035
     FM270800 35012KT P6SM OVC015
     FM271200 35010KT 4SM -RA BR OVC012
     FM272000 33010KT P6SM BKN020
     FM280000 31012KT P6SM BKN040=



000
FTUS41 KAKQ 270539
TAFECG
TAF
KECG 270539Z 2706/2806 21012KT P6SM BKN250
     FM271000 01014G22KT P6SM BKN015 OVC040
     FM271200 01014G22KT 4SM -RA OVC008
     FM280000 35012KT 5SM -RA SCT015 OVC040=



000
FTUS41 KAKQ 270539
TAFORF
TAF
KORF 270539Z 2706/2806 20012KT P6SM BKN250
     FM270900 01014G22KT P6SM BKN015 OVC040
     FM271200 01014G22KT P6SM -SHRA SCT008 OVC015
     FM271600 02012KT 4SM -RA OVC012
     FM280300 36010KT P6SM BKN025=



000
FTUS41 KAKQ 262343
TAFORF
TAF
KORF 262343Z 2700/2724 20012KT P6SM BKN250
     FM270900 01014G22KT 4SM -RA OVC008
     FM272100 36012G18KT 5SM -RA BR OVC012=



000
FTUS41 KAKQ 262343
TAFPHF
TAF
KPHF 262343Z 2700/2724 22012KT P6SM SCT150 BKN250
     FM270800 01013KT P6SM -RA OVC015
     FM271100 02012G20KT 4SM -RA BR OVC008
     FM272000 36010G15KT 5SM -RA BR OVC012=



000
FTUS41 KAKQ 262343
TAFSBY
TAF
KSBY 262343Z 2700/2724 20012KT P6SM BKN250
     FM270600 32012G20KT P6SM -RA OVC015
     FM271100 35010KT 4SM -RA BR OVC012
     FM272000 33010KT 5SM -RA BR OVC015=



000
FTUS41 KAKQ 262343
TAFORF
TAF
KORF 262343Z 2700/2724 20012KT P6SM BKN250
     FM270900 01014G22KT 4SM -RA OVC008
     FM272100 36012G18KT 5SM -RA BR OVC012=



000
FTUS41 KAKQ 262343
TAFSBY
TAF
KSBY 262343Z 2700/2724 20012KT P6SM BKN250
     FM270600 32012G20KT P6SM -RA OVC015
     FM271100 35010KT 4SM -RA BR OVC012
     FM272000 33010KT 5SM -RA BR OVC015=



000
FTUS41 KAKQ 262343
TAFPHF
TAF
KPHF 262343Z 2700/2724 22012KT P6SM SCT150 BKN250
     FM270800 01013KT P6SM -RA OVC015
     FM271100 02012G20KT 4SM -RA BR OVC008
     FM272000 36010G15KT 5SM -RA BR OVC012=



000
FTUS41 KAKQ 262343
TAFECG
TAF
KECG 262343Z 2700/2724 20012KT P6SM BKN250
     FM270800 25012KT 6SM BR OVC020
     FM271000 36014KT 4SM -RA OVC008=



000
FTUS41 KAKQ 262343
TAFRIC
TAF
KRIC 262343Z 2700/2724 20011KT P6SM SCT100 OVC200
     FM270400 24010KT P6SM -RA SCT025 OVC050
     FM270600 01012KT 4SM -RA OVC015
     FM271400 01013G19KT 4SM -RA BR OVC007
     FM271800 36007KT P6SM BKN020=



000
FTUS41 KAKQ 262343
TAFECG
TAF
KECG 262343Z 2700/2724 20012KT P6SM BKN250
     FM270800 25012KT 6SM BR OVC020
     FM271000 36014KT 4SM -RA OVC008=



000
FTUS41 KAKQ 262343
TAFRIC
TAF
KRIC 262343Z 2700/2724 20011KT P6SM SCT100 OVC200
     FM270400 24010KT P6SM -RA SCT025 OVC050
     FM270600 01012KT 4SM -RA OVC015
     FM271400 01013G19KT 4SM -RA BR OVC007
     FM271800 36007KT P6SM BKN020=



000
FTUS41 KAKQ 262104 AAA
TAFORF
TAF AMD
KORF 262104Z 2621/2718 20014G23KT P6SM BKN040 OVC100
      TEMPO 2621/2623 4SM -RA BKN019
     FM262300 20012KT P6SM BKN250
     FM270900 01014G22KT 4SM -RA OVC008=



000
FTUS41 KAKQ 261729
TAFSBY
TAF
KSBY 261729Z 2618/2718 20012G20KT 5SM -SHRA SCT015 BKN025
      TEMPO 2618/2619 19020G30KT 2SM SHRA OVC015
     FM262000 20011KT P6SM BKN025 BKN100 BKN250
     FM262300 22010KT P6SM BKN250
     FM270600 32012G20KT P6SM -RA OVC015
     FM271100 35010KT 5SM -RA BR OVC015=



000
FTUS41 KAKQ 261729
TAFECG
TAF
KECG 261729Z 2618/2718 18014G23KT 4SM -SHRA SCT025 BKN040
     FM261900 20012G20KT P6SM BKN040 OVC080
     FM262300 20012KT P6SM BKN250
     FM271000 36014KT P6SM -RA OVC008=



000
FTUS41 KAKQ 261729
TAFPHF
TAF
KPHF 261729Z 2618/2718 18015G22KT P6SM -SHRA OVC040
      TEMPO 2618/2619 VRB20G30KT 2SM +SHRA OVC015
     FM262000 20015G25KT P6SM BKN040 OVC100
     FM262300 22012KT P6SM SCT150 BKN250
     FM270800 01013KT P6SM -RA OVC015
     FM271100 02012G20KT 4SM -RA BR OVC008=



000
FTUS41 KAKQ 261729
TAFORF
TAF
KORF 261729Z 2618/2718 18015G28KT 4SM -SHRA SCT025 BKN040
      TEMPO 2618/2619 2SM +SHRA BKN015 OVC040
     FM262000 20014G23KT P6SM BKN040 OVC100
     FM262300 20012KT P6SM BKN250
     FM270900 01014G22KT 4SM -RA OVC008=



000
FTUS41 KAKQ 261729
TAFRIC
TAF
KRIC 261729Z 2618/2718 19015G25KT P6SM SCT040 BKN080
      TEMPO 2618/2619 4SM -SHRA BKN030 OVC060
     FM262300 20011KT P6SM SCT100 OVC200
     FM270400 24010KT P6SM -RA SCT025 OVC050
     FM270600 01012KT 4SM -RA OVC015
     FM271400 01013G19KT 4SM -RA BR OVC007=



000
FTUS41 KAKQ 261537 AAA
TAFORF
TAF AMD
KORF 261537Z 2616/2712 18014G22KT 4SM -SHRA SCT025 BKN040
      TEMPO 2616/2619 2SM SHRA BKN015 OVC040
     FM261900 20018G30KT P6SM BKN040 BKN100
     FM262300 22012KT P6SM BKN250
     FM270800 02014G22KT 4SM -RA OVC015=



000
FTUS41 KAKQ 261534 AAA
TAFPHF
TAF AMD
KPHF 261534Z 2616/2712 18015G22KT 4SM SHRA OVC025
      TEMPO 2616/2619 VRB20G30KT 2SM +SHRA OVC015
     FM261900 20015G25KT P6SM BKN035 BKN100
     FM262300 22012KT P6SM BKN250
     FM270700 01013KT 4SM -RA OVC015=



000
FTUS41 KAKQ 261530 CCB
TAFRIC
TAF COR
KRIC 261530Z 2615/2712 18012G20KT P6SM SCT015 OVC025
      TEMPO 2615/2617 5SM SHRA OVC015
     FM261800 20015G25KT P6SM SCT040 BKN120 BKN250
     FM262300 22010KT P6SM BKN250
     FM270600 02012KT 4SM -RA OVC015=



000
FTUS41 KAKQ 261528 AAA
TAFRIC
TAF AMD
KRIC 261528Z 2615/2712 21012G20KT P6SM SCT015 OVC025
      TEMPO 2615/2617 5SM SHRA OVC015
     FM261800 22015G25KT P6SM SCT040 BKN120 BKN250
     FM262300 22010KT P6SM BKN250
     FM270600 02012KT 4SM -RA OVC015=



000
FTUS41 KAKQ 261459 AAA
TAFECG
TAF AMD
KECG 261459Z 2615/2712 17010G18KT P6SM SCT050 BKN080
      TEMPO 2615/2616 4SM SHRA BKN040
     FM261600 20014G22KT 4SM -SHRA SCT025 BKN040
     FM261900 20015G25KT P6SM VCSH BKN040 BKN100
     FM262300 20012KT P6SM BKN250
     FM270900 36014KT 4SM -RA OVC015=



000
FTUS41 KAKQ 261420 AAA
TAFSBY
TAF AMD
KSBY 261420Z 2614/2712 19011KT P6SM BKN050
      TEMPO 2614/2615 4SM -SHRA
     FM261600 20012G20KT 5SM -SHRA SCT015 BKN025
     FM261900 20015G25KT P6SM BKN035 BKN100 BKN250
     FM262300 22010KT P6SM BKN250
     FM270600 34012KT 4SM -RA OVC015=



000
FTUS41 KAKQ 261420 AAA
TAFSBY
TAF AMD
KSBY 261420Z 2614/2712 19011KT P6SM BKN050
      TEMPO 2614/2615 4SM -SHRA
     FM261600 20012G20KT 5SM -SHRA SCT015 BKN025
     FM261900 20015G25KT P6SM BKN035 BKN100 BKN250
     FM262300 22010KT P6SM BKN250
     FM270600 34012KT 4SM -RA OVC015=



000
FTUS41 KAKQ 261159 CCA
TAFORF
TAF COR
KORF 261159Z 2612/2712 19010G19KT P6SM BKN070
     FM261400 21014G22KT 4SM -SHRA SCT025 BKN040
     FM261800 21018G30KT P6SM BKN040 BKN100
     FM262300 22012KT P6SM BKN250
     FM270800 02014G22KT 4SM -RA OVC015=



000
FTUS41 KAKQ 261159 CCA
TAFORF
TAF COR
KORF 261159Z 2612/2712 19010G19KT P6SM BKN070
     FM261400 21014G22KT 4SM -SHRA SCT025 BKN040
     FM261800 21018G30KT P6SM BKN040 BKN100
     FM262300 22012KT P6SM BKN250
     FM270800 02014G22KT 4SM -RA OVC015=



000
FTUS41 KAKQ 261152 CCA
TAFRIC
TAF COR
KRIC 261152Z 2612/2712 16010KT 2SM TSRA OVC005CB
     FM261300 18006KT P6SM OVC025
      TEMPO 2613/2615 4SM -SHRA OVC008
     FM261500 21012G20KT P6SM SCT015 OVC025
     FM261800 22015G25KT P6SM SCT040 BKN120 BKN250
     FM262300 22010KT P6SM BKN250
     FM270600 02012KT 4SM -RA OVC015=



000
FTUS41 KAKQ 261152 CCA
TAFRIC
TAF COR
KRIC 261152Z 2612/2712 16010KT 2SM TSRA OVC005CB
     FM261300 18006KT P6SM OVC025
      TEMPO 2613/2615 4SM -SHRA OVC008
     FM261500 21012G20KT P6SM SCT015 OVC025
     FM261800 22015G25KT P6SM SCT040 BKN120 BKN250
     FM262300 22010KT P6SM BKN250
     FM270600 02012KT 4SM -RA OVC015=



000
FTUS41 KAKQ 261148 CCA
TAFPHF
TAF COR
KPHF 261148Z 2612/2712 19011KT P6SM BKN040
      TEMPO 2612/2615 5SM -SHRA OVC025
     FM261600 21014G22KT P6SM SCT025 BKN050
     FM261900 21015G25KT P6SM BKN035 BKN100
     FM262300 22012KT P6SM BKN250
     FM270700 01013KT 4SM -RA OVC015=



000
FTUS41 KAKQ 261148 CCA
TAFPHF
TAF COR
KPHF 261148Z 2612/2712 19011KT P6SM BKN040
      TEMPO 2612/2615 5SM -SHRA OVC025
     FM261600 21014G22KT P6SM SCT025 BKN050
     FM261900 21015G25KT P6SM BKN035 BKN100
     FM262300 22012KT P6SM BKN250
     FM270700 01013KT 4SM -RA OVC015=



000
FTUS41 KAKQ 261120
TAFRIC
TAF
KRIC 261120Z 2612/2712 16010KT 2SM TSRA OVC005CB
     FM261300 18010KT 4SM -SHRA BR OVC005
     FM261500 21012G20KT P6SM SCT015 OVC025
     FM261800 22015G25KT P6SM SCT040 BKN120 BKN250
     FM262300 22010KT P6SM BKN250
     FM270600 02012KT 4SM -RA OVC015=



000
FTUS41 KAKQ 261120
TAFECG
TAF
KECG 261120Z 2612/2712 17008KT P6SM BKN100
     FM261600 20014G22KT 4SM -SHRA SCT025 BKN040
     FM261900 20015G25KT P6SM VCSH BKN040 BKN100
     FM262300 20012KT P6SM BKN250
     FM270900 36014KT 4SM -RA OVC015=



000
FTUS41 KAKQ 261120
TAFORF
TAF
KORF 261120Z 2612/2712 19010KT P6SM BKN070
     FM261400 21014G22KT 4SM -SHRA SCT025 BKN040
     FM261800 21018G30KT P6SM BKN040 BKN100
     FM262300 22012KT P6SM BKN250
     FM270800 02014G22KT 4SM -RA OVC015=



000
FTUS41 KAKQ 261120
TAFSBY
TAF
KSBY 261120Z 2612/2712 19006KT 5SM -SHRA SCT007 BKN030
     FM261400 19008KT 2SM SHRA OVC006
     FM261600 19012G20KT 5SM -SHRA SCT015 BKN025
     FM261900 20015G25KT P6SM BKN035 BKN100 BKN250
     FM262300 22010KT P6SM BKN250
     FM270600 34012KT 4SM -RA OVC015=



000
FTUS41 KAKQ 261120
TAFPHF
TAF
KPHF 261120Z 2612/2712 19008KT P6SM BKN070
     FM261300 20010KT 4SM -SHRA BR OVC008
     FM261600 21014G22KT P6SM SCT020 OVC030
     FM261900 21015G25KT P6SM BKN035 BKN100
     FM262300 22012KT P6SM BKN250
     FM270700 01013KT 4SM -RA OVC015=



000
FTUS41 KAKQ 261046 AAB
TAFRIC
TAF AMD
KRIC 261046Z 2611/2706 16003KT P6SM OVC005
     FM261130 16010KT 2SM SHRA OVC005
     FM261300 18010KT 4SM -SHRA OVC005
     FM261500 21012G20KT P6SM SCT015 OVC025
     FM261800 22015G25KT P6SM VCSH SCT040 BKN120 BKN250
     FM262300 22010KT P6SM BKN250=



000
FTUS41 KAKQ 261046 AAB
TAFRIC
TAF AMD
KRIC 261046Z 2611/2706 16003KT P6SM OVC005
     FM261130 16010KT 2SM SHRA OVC005
     FM261300 18010KT 4SM -SHRA OVC005
     FM261500 21012G20KT P6SM SCT015 OVC025
     FM261800 22015G25KT P6SM VCSH SCT040 BKN120 BKN250
     FM262300 22010KT P6SM BKN250=



000
FTUS41 KAKQ 260842 AAA
TAFSBY
TAF AMD
KSBY 260842Z 2609/2706 21006KT 4SM BR SCT004 BKN035
     FM261000 19008KT 2SM SHRA OVC006
     FM261500 19012G20KT 5SM -RA BR OVC009
     FM261900 20015G25KT P6SM VCSH BKN035 BKN100 BKN250
     FM262300 22010KT P6SM BKN250=



000
FTUS41 KAKQ 260842 AAA
TAFSBY
TAF AMD
KSBY 260842Z 2609/2706 21006KT 4SM BR SCT004 BKN035
     FM261000 19008KT 2SM SHRA OVC006
     FM261500 19012G20KT 5SM -RA BR OVC009
     FM261900 20015G25KT P6SM VCSH BKN035 BKN100 BKN250
     FM262300 22010KT P6SM BKN250=



000
FTUS41 KAKQ 260838 AAA
TAFRIC
TAF AMD
KRIC 260838Z 2609/2706 16003KT P6SM BKN007 OVC020
     FM261000 18006KT 4SM -RA BR OVC007
     FM261500 21012G20KT P6SM SCT015 OVC025
     FM261800 22015G25KT P6SM VCSH SCT040 BKN120 BKN250
     FM262300 22010KT P6SM BKN250=



000
FTUS41 KAKQ 260838 AAA
TAFRIC
TAF AMD
KRIC 260838Z 2609/2706 16003KT P6SM BKN007 OVC020
     FM261000 18006KT 4SM -RA BR OVC007
     FM261500 21012G20KT P6SM SCT015 OVC025
     FM261800 22015G25KT P6SM VCSH SCT040 BKN120 BKN250
     FM262300 22010KT P6SM BKN250=



000
FTUS41 KAKQ 260540
TAFSBY
TAF
KSBY 260540Z 2606/2706 21003KT 1/2SM FG OVC004
     FM261200 19008KT 2SM -RA BR OVC006
     FM261500 19012G20KT 5SM -RA BR OVC009
     FM261900 20015G25KT P6SM VCSH BKN035 BKN100 BKN250
     FM262300 22010KT P6SM BKN250=



000
FTUS41 KAKQ 260540
TAFRIC
TAF
KRIC 260540Z 2606/2706 16003KT P6SM SCT060 BKN100
     FM260800 18003KT 5SM BR BKN015
     FM261000 18006KT 4SM -RA BR OVC007
     FM261500 21012G20KT P6SM SCT015 OVC025
     FM261800 22015G25KT P6SM VCSH SCT040 BKN120 BKN250
     FM262300 22010KT P6SM BKN250=



000
FTUS41 KAKQ 260540
TAFECG
TAF
KECG 260540Z 2606/2706 14003KT P6SM BKN100
     FM260900 18011KT 4SM -RA BR OVC015
     FM261500 20014G22KT P6SM SCT025 BKN040
     FM261900 20015G25KT P6SM VCSH BKN040 BKN100
     FM262300 20012KT P6SM BKN250=



000
FTUS41 KAKQ 260540
TAFPHF
TAF
KPHF 260540Z 2606/2706 20006KT P6SM OVC100
     FM260900 20008KT P6SM OVC015
     FM261100 20010KT 4SM -RA BR OVC008
     FM261500 21014G22KT P6SM SCT020 OVC030
     FM261900 21015G25KT P6SM VCSH BKN035 BKN100
     FM262300 22012KT P6SM BKN250=



000
FTUS41 KAKQ 260540
TAFORF
TAF
KORF 260540Z 2606/2706 19012KT P6SM BKN100
     FM260900 19012KT 5SM -RA BR OVC020
     FM261500 21014G22KT P6SM SCT025 BKN040
     FM261800 21018G30KT P6SM VCSH BKN040 BKN100
     FM262300 22012KT P6SM BKN250=



000
FTUS41 KAKQ 260540
TAFSBY
TAF
KSBY 260540Z 2606/2706 21003KT 1/2SM FG OVC004
     FM261200 19008KT 2SM -RA BR OVC006
     FM261500 19012G20KT 5SM -RA BR OVC009
     FM261900 20015G25KT P6SM VCSH BKN035 BKN100 BKN250
     FM262300 22010KT P6SM BKN250=



000
FTUS41 KAKQ 260540
TAFORF
TAF
KORF 260540Z 2606/2706 19012KT P6SM BKN100
     FM260900 19012KT 5SM -RA BR OVC020
     FM261500 21014G22KT P6SM SCT025 BKN040
     FM261800 21018G30KT P6SM VCSH BKN040 BKN100
     FM262300 22012KT P6SM BKN250=



000
FTUS41 KAKQ 260540
TAFRIC
TAF
KRIC 260540Z 2606/2706 16003KT P6SM SCT060 BKN100
     FM260800 18003KT 5SM BR BKN015
     FM261000 18006KT 4SM -RA BR OVC007
     FM261500 21012G20KT P6SM SCT015 OVC025
     FM261800 22015G25KT P6SM VCSH SCT040 BKN120 BKN250
     FM262300 22010KT P6SM BKN250=



000
FTUS41 KAKQ 260540
TAFPHF
TAF
KPHF 260540Z 2606/2706 20006KT P6SM OVC100
     FM260900 20008KT P6SM OVC015
     FM261100 20010KT 4SM -RA BR OVC008
     FM261500 21014G22KT P6SM SCT020 OVC030
     FM261900 21015G25KT P6SM VCSH BKN035 BKN100
     FM262300 22012KT P6SM BKN250=



000
FTUS41 KAKQ 260540
TAFECG
TAF
KECG 260540Z 2606/2706 14003KT P6SM BKN100
     FM260900 18011KT 4SM -RA BR OVC015
     FM261500 20014G22KT P6SM SCT025 BKN040
     FM261900 20015G25KT P6SM VCSH BKN040 BKN100
     FM262300 20012KT P6SM BKN250=



000
FTUS41 KAKQ 252326
TAFPHF
TAF
KPHF 252326Z 2600/2624 13007KT P6SM BKN040
     FM260300 20006KT P6SM -RA SCT020 OVC050
     FM260900 20010KT 4SM -RA BR OVC010
     FM261500 21014G22KT P6SM SCT020 OVC030
     FM261900 21015G25KT P6SM VCSH BKN035 BKN100=



000
FTUS41 KAKQ 252326
TAFSBY
TAF
KSBY 252326Z 2600/2624 14006KT P6SM BKN020 BKN040
     FM260300 VRB03KT 5SM BR OVC020
     FM260800 18007KT 3SM -RA BR OVC007
     FM261500 19013G20KT 5SM -RA BR OVC009
     FM261900 20015G25KT P6SM VCSH BKN035 BKN100 BKN250=



000
FTUS41 KAKQ 252326
TAFECG
TAF
KECG 252326Z 2600/2624 18008KT P6SM BKN040
     FM260900 18011KT 4SM -RA BR OVC015
     FM261500 20014G22KT P6SM SCT025 BKN040
     FM261900 20015G24KT P6SM VCSH BKN040 BKN100=



000
FTUS41 KAKQ 252326
TAFRIC
TAF
KRIC 252326Z 2600/2624 16006KT P6SM BKN035
     FM260300 15003KT P6SM OVC015
     FM260700 16005KT 3SM BR OVC008
     FM260900 18006KT 2SM -RA BR OVC004
     FM261500 21012G20KT P6SM SCT015 OVC025
     FM261800 22017KT P6SM VCSH SCT040 BKN120 BKN250=



000
FTUS41 KAKQ 252326
TAFORF
TAF
KORF 252326Z 2600/2624 19010KT P6SM OVC040
     FM260900 19012KT 5SM -RA BR OVC020
     FM261500 21014G22KT P6SM SCT025 BKN040
     FM261800 21018G25KT P6SM VCSH BKN040 BKN100=



000
FTUS41 KAKQ 251740
TAFORF
TAF
KORF 251740Z 2518/2618 06009KT P6SM BKN025
     FM252000 11008KT P6SM BKN035
     FM260000 19010KT P6SM OVC040
     FM260900 19012KT 5SM BR OVC020
     FM261500 21014G22KT P6SM SCT025 BKN040=



000
FTUS41 KAKQ 251740
TAFSBY
TAF
KSBY 251740Z 2518/2618 14006KT P6SM BKN040
     FM260300 VRB03KT 5SM BR OVC020
     FM260800 18007KT 3SM -RA BR OVC007
     FM261500 19013G20KT 5SM -RA BR OVC009=



000
FTUS41 KAKQ 251740
TAFPHF
TAF
KPHF 251740Z 2518/2618 13007KT P6SM BKN040
     FM260300 20006KT P6SM OVC050
     FM260900 20010KT P6SM OVC010
     FM261500 21014G22KT P6SM SCT020 OVC030=



000
FTUS41 KAKQ 251740
TAFRIC
TAF
KRIC 251740Z 2518/2618 16006KT P6SM BKN035
     FM260300 15003KT P6SM OVC015
     FM260700 16005KT 3SM BR OVC008
     FM260900 18006KT 2SM -RA BR OVC004
     FM261500 21012G20KT P6SM SCT015 OVC025=



000
FTUS41 KAKQ 251740
TAFECG
TAF
KECG 251740Z 2518/2618 12009KT P6SM BKN035
      TEMPO 2518/2520 BKN020
     FM252300 18008KT P6SM BKN040
     FM260900 18011KT P6SM OVC025
     FM261500 20014G22KT P6SM SCT025 BKN040=



000
FTUS41 KAKQ 251740
TAFORF
TAF
KORF 251740Z 2518/2618 06009KT P6SM BKN025
     FM252000 11008KT P6SM BKN035
     FM260000 19010KT P6SM OVC040
     FM260900 19012KT 5SM BR OVC020
     FM261500 21014G22KT P6SM SCT025 BKN040=



000
FTUS41 KAKQ 251740
TAFECG
TAF
KECG 251740Z 2518/2618 12009KT P6SM BKN035
      TEMPO 2518/2520 BKN020
     FM252300 18008KT P6SM BKN040
     FM260900 18011KT P6SM OVC025
     FM261500 20014G22KT P6SM SCT025 BKN040=



000
FTUS41 KAKQ 251740
TAFSBY
TAF
KSBY 251740Z 2518/2618 14006KT P6SM BKN040
     FM260300 VRB03KT 5SM BR OVC020
     FM260800 18007KT 3SM -RA BR OVC007
     FM261500 19013G20KT 5SM -RA BR OVC009=



000
FTUS41 KAKQ 251740
TAFPHF
TAF
KPHF 251740Z 2518/2618 13007KT P6SM BKN040
     FM260300 20006KT P6SM OVC050
     FM260900 20010KT P6SM OVC010
     FM261500 21014G22KT P6SM SCT020 OVC030=



000
FTUS41 KAKQ 251740
TAFRIC
TAF
KRIC 251740Z 2518/2618 16006KT P6SM BKN035
     FM260300 15003KT P6SM OVC015
     FM260700 16005KT 3SM BR OVC008
     FM260900 18006KT 2SM -RA BR OVC004
     FM261500 21012G20KT P6SM SCT015 OVC025=



000
FTUS41 KAKQ 251120
TAFSBY
TAF
KSBY 251120Z 2512/2612 VRB03KT P6SM SCT150
     FM251500 12006KT P6SM OVC050
     FM252100 16006KT P6SM OVC025
     FM260000 VRB03KT 5SM BR OVC015=



000
FTUS41 KAKQ 251120
TAFORF
TAF
KORF 251120Z 2512/2612 07009KT P6SM OVC100
     FM251300 09009KT P6SM OVC050
     FM251800 16009KT P6SM OVC015
     FM260000 18006KT P6SM OVC050
     FM260900 19011KT P6SM OVC025=



000
FTUS41 KAKQ 251120
TAFRIC
TAF
KRIC 251120Z 2512/2612 04003KT P6SM OVC050
     FM251500 12004KT P6SM SCT015 OVC035
     FM251800 14005KT P6SM OVC015
     FM252100 18005KT P6SM OVC015
     FM260800 19005KT 2SM BR OVC007=



000
FTUS41 KAKQ 251120
TAFECG
TAF
KECG 251120Z 2512/2612 05009KT P6SM OVC090
     FM251500 09008KT P6SM OVC050
     FM251800 11008KT P6SM OVC015
     FM260000 17006KT P6SM OVC050=



000
FTUS41 KAKQ 251120
TAFPHF
TAF
KPHF 251120Z 2512/2612 07007KT P6SM OVC080
     FM251300 08003KT P6SM OVC050
     FM251500 12006KT P6SM OVC050
     FM251800 15006KT P6SM OVC015
     FM260300 20006KT P6SM OVC050
     FM260900 20010KT P6SM OVC025=



000
FTUS41 KAKQ 250531
TAFECG
TAF
KECG 250531Z 2506/2606 04010KT P6SM OVC090
     FM251500 09008KT P6SM OVC050
     FM251800 11008KT P6SM OVC015
     FM260000 17006KT P6SM OVC050=



000
FTUS41 KAKQ 250531
TAFPHF
TAF
KPHF 250531Z 2506/2606 08009KT P6SM OVC100
     FM251000 08003KT P6SM OVC050
     FM251500 12006KT P6SM OVC050
     FM251800 15006KT P6SM OVC015
     FM260300 20006KT P6SM OVC050=



000
FTUS41 KAKQ 250531
TAFRIC
TAF
KRIC 250531Z 2506/2606 08004KT P6SM OVC100
     FM251000 09004KT P6SM OVC050
     FM251500 12004KT P6SM SCT015 OVC025
     FM251800 14005KT P6SM OVC015
     FM252100 18005KT P6SM OVC015=



000
FTUS41 KAKQ 250531
TAFORF
TAF
KORF 250531Z 2506/2606 08011G17KT P6SM OVC100
     FM251000 09009KT P6SM OVC050
     FM251800 16009KT P6SM OVC015
     FM260000 18006KT P6SM OVC050
     FM260300 20009KT P6SM OVC050=



000
FTUS41 KAKQ 250531
TAFSBY
TAF
KSBY 250531Z 2506/2606 04003KT P6SM SCT150
     FM251500 12006KT P6SM OVC050
     FM252100 16006KT P6SM OVC025
     FM260000 VRB03KT 5SM BR OVC015
     FM260300 16004KT 2SM BR OVC007=



000
FTUS41 KAKQ 242320
TAFORF
TAF
KORF 242320Z 2500/2524 05009KT P6SM BKN050
     FM250800 07005KT 6SM -RA BR OVC025
     FM251100 08008KT 4SM -RA BR OVC015
     FM251700 11009KT 6SM -DZ BR OVC020=



000
FTUS41 KAKQ 242320
TAFORF
TAF
KORF 242320Z 2500/2524 05009KT P6SM BKN050
     FM250800 07005KT 6SM -RA BR OVC025
     FM251100 08008KT 4SM -RA BR OVC015
     FM251700 11009KT 6SM -DZ BR OVC020=



000
FTUS41 KAKQ 242320
TAFRIC
TAF
KRIC 242320Z 2500/2524 08004KT P6SM SCT050 BKN150
     FM250700 08003KT P6SM OVC050
     FM251200 11003KT 6SM -RA BR SCT015 OVC025
     FM251600 12005KT 5SM -RA BR OVC015
     FM252100 18008KT P6SM SCT020 BKN040=



000
FTUS41 KAKQ 242320
TAFECG
TAF
KECG 242320Z 2500/2524 04010KT P6SM SCT035
     FM250200 03009KT P6SM OVC025
     FM250800 03007KT 5SM -RA OVC015
     FM251600 06005KT P6SM -DZ OVC012
     FM252000 12007KT P6SM SCT020 BKN035=



000
FTUS41 KAKQ 242320
TAFRIC
TAF
KRIC 242320Z 2500/2524 08004KT P6SM SCT050 BKN150
     FM250700 08003KT P6SM OVC050
     FM251200 11003KT 6SM -RA BR SCT015 OVC025
     FM251600 12005KT 5SM -RA BR OVC015
     FM252100 18008KT P6SM SCT020 BKN040=



000
FTUS41 KAKQ 242320
TAFECG
TAF
KECG 242320Z 2500/2524 04010KT P6SM SCT035
     FM250200 03009KT P6SM OVC025
     FM250800 03007KT 5SM -RA OVC015
     FM251600 06005KT P6SM -DZ OVC012
     FM252000 12007KT P6SM SCT020 BKN035=



000
FTUS41 KAKQ 242320
TAFSBY
TAF
KSBY 242320Z 2500/2524 04003KT P6SM SCT060 BKN150
     FM251200 07005KT P6SM BKN070
     FM251500 11009KT P6SM BKN035
     FM251900 14007KT 6SM -RA BR BKN025=



000
FTUS41 KAKQ 242320
TAFPHF
TAF
KPHF 242320Z 2500/2524 07008KT P6SM SCT050 SCT100
     FM250300 07004KT P6SM BKN120
     FM251000 10003KT 6SM -RA OVC025
     FM251300 11006KT 4SM -RA OVC015
     FM251800 15007KT 6SM -DZ BR OVC020=



000
FTUS41 KAKQ 242320
TAFSBY
TAF
KSBY 242320Z 2500/2524 04003KT P6SM SCT060 BKN150
     FM251200 07005KT P6SM BKN070
     FM251500 11009KT P6SM BKN035
     FM251900 14007KT 6SM -RA BR BKN025=



000
FTUS41 KAKQ 242320
TAFPHF
TAF
KPHF 242320Z 2500/2524 07008KT P6SM SCT050 SCT100
     FM250300 07004KT P6SM BKN120
     FM251000 10003KT 6SM -RA OVC025
     FM251300 11006KT 4SM -RA OVC015
     FM251800 15007KT 6SM -DZ BR OVC020=



000
FTUS41 KAKQ 241728
TAFORF
TAF
KORF 241728Z 2418/2518 05009KT P6SM SCT050
     FM250100 06007KT P6SM BKN050
     FM250800 07005KT 5SM -RA OVC025
     FM251100 08008KT 4SM -RA BR OVC015
     FM251700 11009KT 6SM -DZ BR OVC021=



000
FTUS41 KAKQ 241728
TAFRIC
TAF
KRIC 241728Z 2418/2518 07005KT P6SM BKN050 BKN100
     FM242300 08004KT P6SM SCT050 BKN150
     FM250700 08003KT P6SM OVC035
     FM251200 11003KT 6SM -RA OVC015
     FM251600 12005KT P6SM OVC020=



000
FTUS41 KAKQ 241728
TAFECG
TAF
KECG 241728Z 2418/2518 03008KT P6SM OVC035
     FM242200 04010KT P6SM SCT035
     FM250200 03009KT P6SM OVC025
     FM250600 03007KT 5SM -RA OVC015
     FM251400 06005KT P6SM OVC018
     FM251600 12007KT P6SM SCT020 BKN035=



000
FTUS41 KAKQ 241728
TAFPHF
TAF
KPHF 241728Z 2418/2518 09008KT P6SM OVC100
     FM242100 07008KT P6SM SCT050 SCT100
     FM250300 07004KT P6SM BKN120
     FM251000 10003KT 6SM -RA OVC025
     FM251300 11006KT 4SM -RA OVC015=



000
FTUS41 KAKQ 241728
TAFSBY
TAF
KSBY 241728Z 2418/2518 02006KT P6SM SCT050 BKN100
     FM242300 04003KT P6SM SCT060
     FM251200 07005KT P6SM BKN070
     FM251500 11009KT P6SM BKN035=



000
FTUS41 KAKQ 241728
TAFRIC
TAF
KRIC 241728Z 2418/2518 07005KT P6SM BKN050 BKN100
     FM242300 08004KT P6SM SCT050 BKN150
     FM250700 08003KT P6SM OVC035
     FM251200 11003KT 6SM -RA OVC015
     FM251600 12005KT P6SM OVC020=



000
FTUS41 KAKQ 241728
TAFORF
TAF
KORF 241728Z 2418/2518 05009KT P6SM SCT050
     FM250100 06007KT P6SM BKN050
     FM250800 07005KT 5SM -RA OVC025
     FM251100 08008KT 4SM -RA BR OVC015
     FM251700 11009KT 6SM -DZ BR OVC021=



000
FTUS41 KAKQ 241728
TAFSBY
TAF
KSBY 241728Z 2418/2518 02006KT P6SM SCT050 BKN100
     FM242300 04003KT P6SM SCT060
     FM251200 07005KT P6SM BKN070
     FM251500 11009KT P6SM BKN035=



000
FTUS41 KAKQ 241728
TAFECG
TAF
KECG 241728Z 2418/2518 03008KT P6SM OVC035
     FM242200 04010KT P6SM SCT035
     FM250200 03009KT P6SM OVC025
     FM250600 03007KT 5SM -RA OVC015
     FM251400 06005KT P6SM OVC018
     FM251600 12007KT P6SM SCT020 BKN035=



000
FTUS41 KAKQ 241728
TAFPHF
TAF
KPHF 241728Z 2418/2518 09008KT P6SM OVC100
     FM242100 07008KT P6SM SCT050 SCT100
     FM250300 07004KT P6SM BKN120
     FM251000 10003KT 6SM -RA OVC025
     FM251300 11006KT 4SM -RA OVC015=



000
FTUS41 KAKQ 241120
TAFRIC
TAF
KRIC 241120Z 2412/2512 05003KT P6SM SCT050 BKN090
     FM241500 07005KT P6SM SCT030 OVC050
     FM250300 08004KT P6SM OVC025
     FM250600 06003KT 4SM -RA OVC007=



000
FTUS41 KAKQ 241120
TAFSBY
TAF
KSBY 241120Z 2412/2512 06004KT P6SM SCT060 BKN100
     FM241700 05005KT P6SM SCT025 OVC050
     FM250000 06003KT P6SM BKN100=



000
FTUS41 KAKQ 241120
TAFORF
TAF
KORF 241120Z 2412/2512 07008KT P6SM SCT070 BKN090
     FM241400 05010KT P6SM SCT025 OVC035
     FM250500 06008KT 4SM -RA OVC025=



000
FTUS41 KAKQ 241120
TAFECG
TAF
KECG 241120Z 2412/2512 06008KT P6SM SCT035 BKN060
     FM241400 04010KT P6SM SCT025 BKN035
     FM250300 03009KT 4SM -RA OVC020=



000
FTUS41 KAKQ 241120
TAFPHF
TAF
KPHF 241120Z 2412/2512 08005KT P6SM SCT070 BKN090
     FM241400 06008KT P6SM SCT025 OVC035
     FM250500 07004KT 4SM -RA OVC025=



    US Dept of Commerce
    National Oceanic and Atmospheric Administration
    National Weather Service
    1325 East West Highway
    Silver Spring, MD 20910
    Page Author: NWS Internet Services Team
Disclaimer
Information Quality
Credits
Glossary
Privacy Policy
Freedom of Information Act (FOIA)
About Us
Career Opportunities